createdAt,value
2022-08-27T00:00:28.378Z,7.50
2022-08-27T00:02:36.071Z,5.10
2022-08-27T00:04:43.898Z,5.07
2022-08-27T00:06:48.774Z,5.78
2022-08-27T00:08:54.951Z,5.32
2022-08-27T00:11:00.068Z,6.47
2022-08-27T00:15:11.820Z,5.55
2022-08-27T00:17:22.674Z,4.20
2022-08-27T00:19:27.639Z,5.72
2022-08-27T00:21:35.643Z,4.72
2022-08-27T00:23:41.290Z,5.32
2022-08-27T00:25:46.154Z,5.53
2022-08-27T00:27:55.587Z,7.05
2022-08-27T00:30:00.604Z,5.88
2022-08-27T00:32:06.066Z,10.10
2022-08-27T00:34:12.967Z,4.55
2022-08-27T00:36:18.497Z,4.60
2022-08-27T00:40:31.824Z,5.85
2022-08-27T00:42:36.963Z,5.40
2022-08-27T00:46:52.560Z,8.48
2022-08-27T00:49:01.686Z,9.02
2022-08-27T00:51:08.942Z,9.38
2022-08-27T00:53:16.918Z,6.05
2022-08-27T00:55:28.679Z,6.38
2022-08-27T00:57:34.128Z,6.63
2022-08-27T00:59:39.621Z,6.93
2022-08-27T01:01:58.860Z,7.30
2022-08-27T01:04:07.202Z,9.45
2022-08-27T01:06:16.174Z,6.30
2022-08-27T01:08:23.868Z,7.45
2022-08-27T01:10:32.682Z,6.47
2022-08-27T01:12:38.633Z,5.43
2022-08-27T01:14:47.193Z,7.18
2022-08-27T01:16:56.179Z,7.07
2022-08-27T01:19:01.803Z,6.35
2022-08-27T01:21:15.515Z,8.18
2022-08-27T01:23:28.149Z,4.55
2022-08-27T01:25:36.012Z,6.97
2022-08-27T01:27:42.178Z,7.13
2022-08-27T01:29:47.990Z,8.98
2022-08-27T01:31:52.964Z,7.55
2022-08-27T01:34:00.455Z,6.18
2022-08-27T01:36:05.928Z,5.07
2022-08-27T01:38:18.298Z,6.57
2022-08-27T01:40:38.181Z,5.70
2022-08-27T01:42:45.729Z,8.15
2022-08-27T01:44:54.069Z,6.93
2022-08-27T01:46:58.986Z,6.72
2022-08-27T01:51:09.887Z,9.55
2022-08-27T01:53:18.003Z,12.05
2022-08-27T01:55:25.411Z,10.90
2022-08-27T01:57:33.026Z,12.07
2022-08-27T01:59:39.598Z,9.85
2022-08-27T02:01:45.170Z,12.25
2022-08-27T02:03:50.371Z,8.98
2022-08-27T02:08:00.704Z,10.43
2022-08-27T02:10:06.721Z,10.05
2022-08-27T02:12:12.009Z,9.77
2022-08-27T02:14:20.418Z,9.32
2022-08-27T02:16:25.449Z,8.82
2022-08-27T02:18:30.417Z,9.32
2022-08-27T02:20:35.497Z,7.70
2022-08-27T02:24:45.222Z,6.93
2022-08-27T02:26:50.161Z,7.40
2022-08-27T02:28:55.362Z,9.10
2022-08-27T02:31:02.949Z,7.03
2022-08-27T02:33:08.457Z,7.88
2022-08-27T02:35:13.385Z,7.28
2022-08-27T02:37:18.630Z,8.30
2022-08-27T02:39:23.751Z,7.95
2022-08-27T02:41:28.583Z,6.35
2022-08-27T02:43:33.677Z,9.73
2022-08-27T02:45:40.864Z,6.18
2022-08-27T02:49:53.002Z,6.15
2022-08-27T02:51:58.897Z,6.70
2022-08-27T02:54:04.105Z,6.70
2022-08-27T02:56:10.538Z,6.68
2022-08-27T02:58:17.012Z,9.23
2022-08-27T03:00:24.549Z,6.45
2022-08-27T03:02:29.528Z,9.40
2022-08-27T03:04:37.318Z,7.72
2022-08-27T03:06:42.379Z,7.15
2022-08-27T03:10:58.037Z,7.20
2022-08-27T03:13:02.958Z,8.02
2022-08-27T03:15:09.627Z,6.93
2022-08-27T03:17:27.079Z,6.80
2022-08-27T03:19:32.127Z,6.32
2022-08-27T03:23:44.335Z,8.60
2022-08-27T03:25:54.223Z,6.13
2022-08-27T03:27:59.099Z,6.35
2022-08-27T03:32:10.086Z,8.50
2022-08-27T03:34:14.955Z,6.57
2022-08-27T03:36:26.239Z,6.75
2022-08-27T03:38:33.703Z,8.73
2022-08-27T03:40:38.700Z,7.35
2022-08-27T03:44:48.384Z,9.40
2022-08-27T03:46:54.102Z,7.82
2022-08-27T03:48:59.168Z,7.90
2022-08-27T03:51:08.245Z,6.30
2022-08-27T03:53:13.806Z,8.20
2022-08-27T03:55:21.577Z,6.82
2022-08-27T03:57:26.522Z,7.25
2022-08-27T03:59:31.369Z,8.25
2022-08-27T04:01:36.798Z,6.15
2022-08-27T04:03:41.718Z,6.30
2022-08-27T04:05:46.965Z,7.55
2022-08-27T04:07:52.333Z,7.20
2022-08-27T04:09:57.228Z,8.98
2022-08-27T04:12:05.042Z,6.35
2022-08-27T04:14:23.463Z,7.65
2022-08-27T04:16:32.070Z,6.78
2022-08-27T04:18:37.175Z,7.50
2022-08-27T04:22:46.595Z,6.07
2022-08-27T04:24:51.506Z,6.40
2022-08-27T04:26:56.386Z,7.30
2022-08-27T04:29:03.873Z,7.30
2022-08-27T04:31:16.685Z,7.72
2022-08-27T04:33:21.862Z,8.05
2022-08-27T04:35:26.716Z,5.95
2022-08-27T04:37:34.812Z,6.43
2022-08-27T04:39:39.838Z,7.50
2022-08-27T04:41:45.328Z,8.10
2022-08-27T04:43:51.737Z,13.30
2022-08-27T04:45:59.695Z,8.60
2022-08-27T04:48:04.538Z,6.05
2022-08-27T04:50:10.228Z,9.88
2022-08-27T04:52:15.677Z,7.63
2022-08-27T04:54:32.212Z,9.50
2022-08-27T04:56:38.603Z,8.63
2022-08-27T04:58:43.871Z,6.57
2022-08-27T05:00:51.349Z,6.20
2022-08-27T05:02:58.826Z,6.75
2022-08-27T05:05:03.756Z,7.82
2022-08-27T05:07:10.215Z,7.15
2022-08-27T05:09:16.063Z,6.35
2022-08-27T05:11:24.317Z,7.35
2022-08-27T05:13:30.102Z,5.93
2022-08-27T05:15:35.036Z,8.85
2022-08-27T05:19:47.261Z,6.35
2022-08-27T05:21:54.512Z,8.73
2022-08-27T05:24:01.184Z,6.55
2022-08-27T05:26:06.310Z,8.35
2022-08-27T05:30:16.539Z,8.55
2022-08-27T05:32:21.763Z,6.20
2022-08-27T05:34:27.243Z,8.02
2022-08-27T05:36:37.777Z,9.10
2022-08-27T05:38:53.032Z,7.80
2022-08-27T05:43:10.833Z,10.35
2022-08-27T05:45:16.310Z,7.50
2022-08-27T05:47:21.280Z,9.30
2022-08-27T05:49:26.133Z,7.85
2022-08-27T05:51:36.483Z,7.70
2022-08-27T05:53:41.906Z,10.18
2022-08-27T05:55:47.929Z,8.23
2022-08-27T05:57:53.344Z,6.85
2022-08-27T06:00:15.736Z,8.10
2022-08-27T06:02:21.770Z,11.35
2022-08-27T06:04:28.227Z,10.65
2022-08-27T06:06:37.674Z,8.43
2022-08-27T06:08:42.623Z,9.15
2022-08-27T06:10:47.575Z,7.60
2022-08-27T06:12:56.758Z,9.60
2022-08-27T06:15:02.046Z,13.25
2022-08-27T06:17:07.403Z,11.32
2022-08-27T06:19:14.461Z,9.82
2022-08-27T06:21:24.866Z,7.88
2022-08-27T06:23:32.484Z,8.40
2022-08-27T06:25:37.313Z,8.18
2022-08-27T06:27:42.342Z,10.35
2022-08-27T06:29:48.522Z,9.95
2022-08-27T06:31:55.121Z,8.48
2022-08-27T06:34:07.353Z,11.13
2022-08-27T06:36:14.861Z,11.70
2022-08-27T06:38:19.712Z,10.00
2022-08-27T06:40:27.471Z,9.93
2022-08-27T06:42:32.386Z,7.10
2022-08-27T06:44:39.718Z,10.95
2022-08-27T06:46:45.625Z,8.40
2022-08-27T06:48:50.944Z,10.25
2022-08-27T06:50:56.268Z,10.50
2022-08-27T06:53:01.210Z,9.63
2022-08-27T06:55:06.900Z,9.65
2022-08-27T06:57:14.364Z,8.32
2022-08-27T06:59:21.401Z,12.25
2022-08-27T07:01:28.320Z,11.77
2022-08-27T07:03:35.242Z,11.75
2022-08-27T07:05:43.038Z,11.23
2022-08-27T07:07:48.924Z,10.77
2022-08-27T07:09:53.970Z,10.98
2022-08-27T07:11:58.816Z,9.90
2022-08-27T07:14:06.338Z,10.00
2022-08-27T07:16:15.604Z,10.85
2022-08-27T07:18:20.859Z,10.13
2022-08-27T07:20:33.162Z,10.88
2022-08-27T07:22:38.097Z,10.98
2022-08-27T07:24:43.191Z,10.77
2022-08-27T07:28:53.642Z,10.40
2022-08-27T07:31:01.830Z,12.77
2022-08-27T07:33:07.118Z,11.30
2022-08-27T07:35:12.483Z,13.55
2022-08-27T07:37:17.467Z,11.73
2022-08-27T07:41:30.308Z,12.55
2022-08-27T07:43:48.764Z,9.50
2022-08-27T07:45:56.413Z,15.50
2022-08-27T07:48:04.006Z,14.13
2022-08-27T07:50:10.330Z,11.57
2022-08-27T07:52:16.260Z,15.20
2022-08-27T07:54:21.515Z,11.88
2022-08-27T07:56:26.637Z,12.38
2022-08-27T08:00:36.911Z,13.88
2022-08-27T08:02:45.064Z,12.60
2022-08-27T08:04:52.599Z,13.65
2022-08-27T08:06:58.468Z,13.80
2022-08-27T08:09:03.476Z,12.95
2022-08-27T08:13:14.072Z,11.80
2022-08-27T08:15:20.177Z,13.77
2022-08-27T08:17:25.052Z,11.70
2022-08-27T08:19:32.101Z,10.50
2022-08-27T08:21:40.525Z,14.07
2022-08-27T08:23:45.698Z,12.60
2022-08-27T08:25:50.588Z,16.23
2022-08-27T08:27:55.754Z,12.85
2022-08-27T08:30:00.993Z,16.58
2022-08-27T08:32:06.332Z,13.63
2022-08-27T08:34:11.706Z,15.15
2022-08-27T08:36:20.952Z,12.00
2022-08-27T08:38:28.456Z,15.27
2022-08-27T08:40:37.655Z,11.45
2022-08-27T08:42:50.605Z,10.45
2022-08-27T08:44:57.926Z,10.00
2022-08-27T08:47:08.436Z,13.82
2022-08-27T08:49:20.940Z,14.45
2022-08-27T08:51:32.777Z,11.77
2022-08-27T08:53:47.610Z,11.80
2022-08-27T08:55:58.475Z,12.25
2022-08-27T08:58:15.285Z,14.00
2022-08-27T09:00:20.322Z,16.05
2022-08-27T09:04:33.300Z,12.18
2022-08-27T09:06:44.289Z,12.65
2022-08-27T09:08:51.840Z,12.40
2022-08-27T09:11:07.338Z,11.13
2022-08-27T09:15:31.783Z,8.55
2022-08-27T09:17:37.184Z,12.00
2022-08-27T09:19:43.029Z,9.07
2022-08-27T09:21:54.498Z,9.95
2022-08-27T09:24:09.656Z,10.65
2022-08-27T09:26:25.942Z,12.00
2022-08-27T09:28:44.782Z,8.75
2022-08-27T09:30:49.744Z,9.18
2022-08-27T09:35:07.033Z,10.32
2022-08-27T09:37:17.216Z,10.10
2022-08-27T09:39:31.301Z,11.73
2022-08-27T09:41:48.392Z,14.10
2022-08-27T09:44:02.123Z,14.27
2022-08-27T09:46:19.775Z,11.43
2022-08-27T09:48:29.972Z,13.30
2022-08-27T09:50:43.589Z,11.48
2022-08-27T09:52:56.528Z,11.75
2022-08-27T09:55:05.433Z,11.45
2022-08-27T09:57:12.609Z,10.80
2022-08-27T09:59:27.040Z,6.93
2022-08-27T10:01:34.453Z,9.82
2022-08-27T10:03:39.354Z,7.88
2022-08-27T10:05:50.690Z,7.25
2022-08-27T10:08:00.727Z,8.80
2022-08-27T10:10:16.604Z,7.32
2022-08-27T10:12:28.394Z,8.25
2022-08-27T10:14:37.683Z,7.13
2022-08-27T10:16:59.147Z,11.13
2022-08-27T10:19:18.080Z,6.40
2022-08-27T10:21:28.022Z,3.88
2022-08-27T10:23:43.501Z,6.10
2022-08-27T10:28:13.183Z,5.18
2022-08-27T10:30:22.122Z,5.53
2022-08-27T10:32:43.373Z,4.82
2022-08-27T10:35:10.528Z,6.57
2022-08-27T10:37:36.751Z,7.07
2022-08-27T10:40:04.614Z,6.28
2022-08-27T10:42:18.070Z,6.90
2022-08-27T10:44:41.565Z,7.10
2022-08-27T10:47:12.209Z,10.43
2022-08-27T10:49:23.636Z,7.50
2022-08-27T10:51:37.942Z,5.43
2022-08-27T10:53:53.449Z,6.35
2022-08-27T10:56:16.185Z,5.60
2022-08-27T10:58:51.247Z,5.15
2022-08-27T11:01:04.571Z,9.48
2022-08-27T11:03:13.731Z,6.25
2022-08-27T11:05:23.469Z,5.78
2022-08-27T11:07:33.761Z,4.93
2022-08-27T11:09:43.821Z,4.25
2022-08-27T11:12:13.182Z,5.22
2022-08-27T11:14:31.143Z,3.13
2022-08-27T11:16:44.806Z,5.50
2022-08-27T11:18:54.046Z,4.95
2022-08-27T11:21:04.482Z,4.20
2022-08-27T11:23:13.041Z,4.40
2022-08-27T11:25:34.180Z,5.15
2022-08-27T11:27:40.357Z,5.75
2022-08-27T11:30:00.387Z,4.38
2022-08-27T11:32:13.875Z,4.35
2022-08-27T11:34:25.782Z,4.40
2022-08-27T11:36:55.893Z,4.18
2022-08-27T11:39:07.322Z,4.47
2022-08-27T11:41:44.814Z,3.97
2022-08-27T11:43:50.902Z,4.72
2022-08-27T11:46:01.752Z,4.43
2022-08-27T11:48:20.744Z,4.75
2022-08-27T11:50:27.388Z,4.88
2022-08-27T11:52:35.786Z,5.47
2022-08-27T11:54:50.340Z,4.53
2022-08-27T11:56:55.379Z,3.53
2022-08-27T11:59:12.658Z,4.38
2022-08-27T12:01:29.895Z,3.90
2022-08-27T12:03:37.131Z,4.28
2022-08-27T12:05:45.583Z,4.35
2022-08-27T12:07:54.968Z,4.28
2022-08-27T12:10:19.786Z,3.60
2022-08-27T12:12:36.663Z,3.22
2022-08-27T12:14:48.665Z,3.58
2022-08-27T12:17:03.961Z,5.13
2022-08-27T12:19:23.501Z,3.65
2022-08-27T12:21:38.775Z,3.83
2022-08-27T12:26:00.507Z,3.95
2022-08-27T12:28:09.462Z,3.25
2022-08-27T12:30:24.607Z,4.72
2022-08-27T12:32:35.004Z,3.10
2022-08-27T12:34:47.108Z,2.72
2022-08-27T12:36:53.748Z,2.80
2022-08-27T12:39:03.014Z,2.70
2022-08-27T12:41:09.419Z,3.03
2022-08-27T12:43:16.724Z,3.33
2022-08-27T12:45:24.479Z,3.78
2022-08-27T12:47:36.964Z,4.20
2022-08-27T12:49:53.815Z,3.97
2022-08-27T12:52:04.669Z,4.68
2022-08-27T12:54:28.866Z,4.28
2022-08-27T12:56:48.228Z,4.07
2022-08-27T12:59:04.752Z,2.92
2022-08-27T13:01:28.736Z,4.10
2022-08-27T13:03:41.284Z,4.93
2022-08-27T13:05:49.680Z,3.17
2022-08-27T13:07:57.042Z,2.30
2022-08-27T13:10:13.216Z,2.72
2022-08-27T13:12:21.430Z,4.70
2022-08-27T13:14:27.921Z,3.40
2022-08-27T13:16:35.139Z,6.15
2022-08-27T13:18:50.332Z,3.42
2022-08-27T13:21:05.090Z,3.55
2022-08-27T13:23:20.311Z,3.47
2022-08-27T13:27:35.687Z,3.83
2022-08-27T13:29:41.306Z,3.50
2022-08-27T13:31:49.332Z,3.63
2022-08-27T13:33:58.738Z,3.45
2022-08-27T13:36:06.841Z,2.65
2022-08-27T13:38:12.662Z,4.22
2022-08-27T13:40:28.994Z,7.38
2022-08-27T13:42:34.179Z,4.25
2022-08-27T13:44:42.051Z,4.38
2022-08-27T13:46:56.380Z,4.57
2022-08-27T13:49:04.024Z,4.22
2022-08-27T13:51:10.012Z,3.85
2022-08-27T13:53:34.217Z,3.35
2022-08-27T13:55:41.173Z,3.22
2022-08-27T13:57:48.601Z,3.75
2022-08-27T13:59:53.529Z,3.50
2022-08-27T14:02:02.892Z,4.38
2022-08-27T14:04:12.777Z,3.10
2022-08-27T14:06:35.438Z,3.92
2022-08-27T14:08:40.610Z,3.10
2022-08-27T14:13:00.993Z,4.15
2022-08-27T14:15:16.834Z,3.47
2022-08-27T14:17:29.385Z,2.35
2022-08-27T14:19:40.136Z,4.20
2022-08-27T14:21:46.085Z,3.78
2022-08-27T14:23:51.969Z,3.70
2022-08-27T14:26:00.219Z,2.92
2022-08-27T14:28:05.652Z,3.38
2022-08-27T14:30:13.083Z,5.25
2022-08-27T14:32:19.244Z,5.95
2022-08-27T14:34:25.210Z,9.90
2022-08-27T14:36:37.478Z,4.72
2022-08-27T14:38:46.665Z,5.00
2022-08-27T14:40:53.844Z,3.30
2022-08-27T14:42:59.615Z,3.90
2022-08-27T14:47:10.283Z,4.95
2022-08-27T14:49:25.076Z,7.00
2022-08-27T14:51:37.097Z,4.68
2022-08-27T14:53:41.923Z,5.43
2022-08-27T14:57:56.690Z,4.15
2022-08-27T15:02:10.041Z,4.70
2022-08-27T15:04:15.510Z,4.53
2022-08-27T15:06:22.466Z,5.60
2022-08-27T15:08:32.075Z,8.00
2022-08-27T15:10:37.227Z,5.32
2022-08-27T15:12:43.122Z,5.15
2022-08-27T15:14:47.986Z,4.40
2022-08-27T15:16:53.708Z,5.65
2022-08-27T15:19:01.078Z,5.40
2022-08-27T15:21:06.562Z,5.15
2022-08-27T15:23:13.734Z,4.32
2022-08-27T15:25:22.062Z,5.15
2022-08-27T15:27:31.952Z,5.13
2022-08-27T15:29:43.577Z,4.72
2022-08-27T15:31:48.779Z,7.00
2022-08-27T15:33:53.734Z,5.13
2022-08-27T15:38:08.946Z,5.68
2022-08-27T15:40:15.477Z,8.90
2022-08-27T15:42:23.688Z,4.35
2022-08-27T15:44:28.698Z,5.15
2022-08-27T15:48:39.360Z,4.25
2022-08-27T15:50:45.508Z,5.57
2022-08-27T15:52:52.083Z,4.20
2022-08-27T15:54:57.070Z,4.75
2022-08-27T15:59:10.089Z,4.15
2022-08-27T16:01:18.581Z,4.50
2022-08-27T16:03:26.178Z,4.82
2022-08-27T16:05:43.417Z,6.68
2022-08-27T16:07:48.532Z,4.85
2022-08-27T16:09:53.968Z,4.68
2022-08-27T16:11:58.956Z,4.05
2022-08-27T16:14:04.029Z,6.05
2022-08-27T16:16:11.707Z,7.70
2022-08-27T16:18:17.003Z,4.43
2022-08-27T16:20:25.649Z,5.88
2022-08-27T16:22:30.753Z,5.15
2022-08-27T16:24:36.270Z,4.65
2022-08-27T16:26:41.890Z,5.03
2022-08-27T16:28:47.008Z,3.35
2022-08-27T16:30:54.819Z,5.40
2022-08-27T16:33:02.470Z,6.63
2022-08-27T16:35:08.843Z,5.03
2022-08-27T16:37:14.720Z,3.03
2022-08-27T16:39:19.604Z,2.67
2022-08-27T16:43:30.855Z,2.67
2022-08-27T16:45:35.879Z,4.65
2022-08-27T16:50:26.092Z,6.70
2022-08-27T16:52:31.909Z,5.88
2022-08-27T16:54:37.856Z,13.18
2022-08-27T16:56:43.600Z,8.40
2022-08-27T16:58:53.296Z,8.98
2022-08-27T17:01:01.047Z,12.90
2022-08-27T17:03:05.963Z,8.38
2022-08-27T17:07:38.650Z,9.75
2022-08-27T17:09:44.264Z,7.28
2022-08-27T17:11:54.850Z,7.97
2022-08-27T17:14:02.782Z,10.35
2022-08-27T17:16:08.272Z,7.47
2022-08-27T17:18:13.714Z,8.90
2022-08-27T17:20:21.950Z,8.82
2022-08-27T17:22:27.598Z,7.00
2022-08-27T17:24:32.452Z,5.38
2022-08-27T17:26:37.399Z,5.50
2022-08-27T17:28:43.549Z,7.03
2022-08-27T17:30:48.675Z,7.22
2022-08-27T17:32:53.815Z,4.88
2022-08-27T17:35:05.120Z,6.88
2022-08-27T17:37:14.079Z,6.88
2022-08-27T17:39:19.623Z,7.50
2022-08-27T17:41:33.656Z,7.93
2022-08-27T17:43:40.212Z,8.20
2022-08-27T17:45:45.415Z,12.15
2022-08-27T17:49:55.337Z,10.73
2022-08-27T17:52:02.779Z,7.90
2022-08-27T17:54:21.993Z,6.53
2022-08-27T17:56:27.412Z,4.53
2022-08-27T17:58:32.902Z,7.70
2022-08-27T18:00:38.655Z,6.90
2022-08-27T18:02:47.502Z,7.78
2022-08-27T18:04:53.109Z,7.70
2022-08-27T18:06:58.250Z,6.85
2022-08-27T18:11:10.995Z,5.35
2022-08-27T18:13:16.639Z,7.35
2022-08-27T18:15:24.368Z,6.25
2022-08-27T18:17:29.358Z,4.80
2022-08-27T18:19:37.825Z,7.78
2022-08-27T18:21:46.511Z,8.95
2022-08-27T18:23:53.201Z,10.57
2022-08-27T18:25:59.657Z,7.80
2022-08-27T18:28:09.386Z,6.72
2022-08-27T18:30:16.408Z,7.32
2022-08-27T18:32:21.346Z,7.15
2022-08-27T18:34:26.180Z,5.70
2022-08-27T18:36:31.555Z,8.07
2022-08-27T18:38:36.468Z,9.38
2022-08-27T18:40:44.635Z,7.85
2022-08-27T18:42:49.855Z,9.68
2022-08-27T18:44:57.676Z,7.25
2022-08-27T18:47:02.539Z,9.95
2022-08-27T18:49:07.816Z,6.38
2022-08-27T18:51:15.480Z,6.07
2022-08-27T18:53:22.158Z,8.55
2022-08-27T18:55:30.379Z,8.25
2022-08-27T18:57:35.307Z,9.63
2022-08-27T18:59:40.314Z,6.13
2022-08-27T19:01:48.223Z,4.45
2022-08-27T19:03:54.972Z,6.15
2022-08-27T19:06:00.632Z,12.30
2022-08-27T19:08:06.893Z,8.30
2022-08-27T19:10:12.596Z,8.45
2022-08-27T19:12:18.263Z,7.18
2022-08-27T19:14:23.108Z,10.00
2022-08-27T19:16:36.020Z,9.10
2022-08-27T19:18:44.669Z,7.97
2022-08-27T19:20:49.518Z,10.05
2022-08-27T19:24:59.521Z,6.28
2022-08-27T19:29:09.308Z,7.75
2022-08-27T19:33:19.414Z,7.40
2022-08-27T19:35:27.085Z,8.75
2022-08-27T19:37:34.052Z,8.07
2022-08-27T19:39:40.181Z,6.55
2022-08-27T19:41:45.145Z,6.82
2022-08-27T19:43:50.060Z,5.30
2022-08-27T19:45:55.516Z,6.53
2022-08-27T19:48:02.271Z,7.38
2022-08-27T19:50:08.269Z,7.10
2022-08-27T19:52:16.141Z,9.45
2022-08-27T19:54:21.649Z,6.85
2022-08-27T19:56:28.885Z,6.93
2022-08-27T19:58:33.835Z,7.80
2022-08-27T20:00:38.767Z,8.15
2022-08-27T20:02:44.858Z,8.25
2022-08-27T20:05:14.373Z,9.02
2022-08-27T20:07:17.236Z,8.77
2022-08-27T20:09:25.667Z,8.25
2022-08-27T20:11:30.473Z,10.00
2022-08-27T20:13:35.453Z,9.65
2022-08-27T20:15:43.273Z,6.88
2022-08-27T20:17:51.502Z,8.00
2022-08-27T20:19:56.684Z,10.13
2022-08-27T20:22:01.562Z,7.50
2022-08-27T20:24:09.711Z,7.55
2022-08-27T20:26:14.610Z,8.60
2022-08-27T20:28:37.793Z,6.90
2022-08-27T20:30:43.568Z,7.97
2022-08-27T20:32:53.641Z,7.18
2022-08-27T20:34:59.409Z,8.77
2022-08-27T20:39:12.818Z,9.75
2022-08-27T20:41:17.688Z,7.85
2022-08-27T20:43:22.620Z,8.85
2022-08-27T20:45:27.875Z,9.25
2022-08-27T20:47:35.293Z,8.32
2022-08-27T20:49:41.630Z,9.35
2022-08-27T20:51:51.242Z,9.70
2022-08-27T20:54:07.615Z,9.50
2022-08-27T20:56:15.098Z,8.15
2022-08-27T20:58:32.604Z,8.68
2022-08-27T21:00:40.381Z,6.95
2022-08-27T21:02:46.619Z,10.73
2022-08-27T21:04:52.136Z,7.80
2022-08-27T21:06:56.983Z,7.95
2022-08-27T21:09:01.939Z,9.25
2022-08-27T21:11:15.732Z,8.25
2022-08-27T21:13:22.814Z,8.70
2022-08-27T21:15:27.779Z,8.85
2022-08-27T21:17:32.661Z,7.50
2022-08-27T21:19:38.193Z,10.65
2022-08-27T21:21:43.162Z,6.80
2022-08-27T21:23:48.909Z,10.90
2022-08-27T21:25:53.757Z,7.38
2022-08-27T21:28:03.621Z,7.60
2022-08-27T21:30:10.986Z,7.65
2022-08-27T21:32:16.788Z,7.15
2022-08-27T21:34:21.734Z,7.40
2022-08-27T21:38:31.833Z,7.97
2022-08-27T21:40:36.727Z,9.32
2022-08-27T21:42:42.001Z,9.00
2022-08-27T21:44:49.520Z,7.78
2022-08-27T21:46:54.431Z,10.52
2022-08-27T21:51:10.548Z,7.97
2022-08-27T21:53:17.042Z,7.28
2022-08-27T21:55:22.117Z,9.43
2022-08-27T21:57:27.018Z,7.97
2022-08-27T21:59:32.136Z,8.02
2022-08-27T22:03:47.022Z,8.55
2022-08-27T22:05:53.221Z,8.90
2022-08-27T22:07:58.105Z,9.68
2022-08-27T22:10:03.199Z,9.43
2022-08-27T22:14:13.294Z,8.25
2022-08-27T22:16:18.323Z,12.07
2022-08-27T22:18:26.093Z,10.82
2022-08-27T22:20:33.118Z,8.80
2022-08-27T22:22:38.310Z,8.38
2022-08-27T22:24:43.183Z,10.57
2022-08-27T22:26:48.106Z,10.05
2022-08-27T22:28:53.173Z,9.25
2022-08-27T22:33:03.756Z,11.77
2022-08-27T22:35:13.144Z,9.27
2022-08-27T22:37:18.062Z,13.43
2022-08-27T22:39:24.051Z,10.60
2022-08-27T22:41:30.282Z,12.52
2022-08-27T22:43:37.642Z,8.93
2022-08-27T22:47:47.101Z,12.15
2022-08-27T22:52:00.685Z,9.30
2022-08-27T22:54:05.551Z,10.32
2022-08-27T22:56:10.471Z,10.90
2022-08-27T22:58:16.281Z,10.15
2022-08-27T23:00:26.209Z,12.93
2022-08-27T23:02:31.305Z,9.68
2022-08-27T23:07:04.171Z,10.95
2022-08-27T23:09:09.070Z,10.68
2022-08-27T23:11:13.979Z,10.85
2022-08-27T23:13:18.849Z,10.25
2022-08-27T23:15:25.972Z,10.65
2022-08-27T23:17:30.835Z,14.95
2022-08-27T23:19:35.674Z,11.32
2022-08-27T23:23:47.999Z,12.43
2022-08-27T23:26:05.264Z,12.35
2022-08-27T23:28:14.446Z,9.30
2022-08-27T23:30:20.666Z,10.20
2022-08-27T23:32:27.526Z,11.73
2022-08-27T23:34:32.538Z,16.00
2022-08-27T23:36:38.393Z,10.20
2022-08-27T23:38:43.302Z,10.65
2022-08-27T23:40:52.313Z,12.15
2022-08-27T23:42:58.018Z,10.63
2022-08-27T23:45:02.891Z,10.18
2022-08-27T23:47:07.779Z,9.90
2022-08-27T23:49:12.636Z,11.52
2022-08-27T23:51:17.543Z,11.82
2022-08-27T23:53:22.614Z,13.45
2022-08-27T23:57:34.814Z,12.10
2022-08-27T23:59:39.649Z,10.40
